Time;durP1;ratioP1;P1;durP2;ratioP2;P2;SDS_P1;SDS_P2;PMS_P1;PMS_P2;Temp;Humidity;BMP_temperature;BMP_pressure;BME280_temperature;BME280_humidity;BME280_pressure;Samples;Min_cycle;Max_cycle;Signal;HPM_P1;HPM_P2
2021/04/01 00:02:27;;;;;;;6.97;4.00;;;17.80;18.90;;;;;;5057294;28;20550;-82
2021/04/01 00:04:55;;;;;;;3.80;3.13;;;17.80;17.50;;;;;;5050190;28;21082;-84
2021/04/01 00:07:22;;;;;;;8.23;3.70;;;17.70;17.50;;;;;;5048103;28;21000;-80
2021/04/01 00:09:49;;;;;;;5.43;3.57;;;17.70;18.20;;;;;;5050541;28;20473;-80
2021/04/01 00:12:18;;;;;;;4.40;3.23;;;17.70;18.40;;;;;;5048058;28;20479;-83
2021/04/01 00:14:45;;;;;;;4.27;3.13;;;17.60;17.90;;;;;;5049066;28;20580;-82
2021/04/01 00:17:14;;;;;;;5.03;3.23;;;17.60;17.90;;;;;;5047500;28;20986;-82
2021/04/01 00:19:41;;;;;;;8.70;3.50;;;17.50;16.90;;;;;;5049880;28;20452;-83
2021/04/01 00:22:08;;;;;;;4.70;3.57;;;17.50;18.20;;;;;;5050659;28;20544;-84
2021/04/01 00:24:36;;;;;;;5.57;3.07;;;17.40;17.30;;;;;;5053983;28;20543;-83
2021/04/01 00:27:04;;;;;;;4.40;3.50;;;17.40;16.90;;;;;;5054113;28;20976;-84
2021/04/01 00:29:33;;;;;;;4.00;2.90;;;17.40;16.00;;;;;;5054166;28;20525;-83
2021/04/01 00:32:00;;;;;;;3.67;3.00;;;17.40;17.00;;;;;;5062535;28;21077;-81
2021/04/01 00:34:27;;;;;;;4.23;3.00;;;17.30;16.90;;;;;;5070319;28;20494;-80
2021/04/01 00:36:54;;;;;;;5.60;3.20;;;17.20;17.10;;;;;;5057440;28;20479;-81
2021/04/01 00:39:21;;;;;;;4.20;3.23;;;17.20;17.60;;;;;;5052322;28;20468;-81
2021/04/01 00:41:48;;;;;;;5.13;3.90;;;17.20;16.00;;;;;;5053733;28;20491;-82
2021/04/01 00:44:17;;;;;;;4.23;3.50;;;17.20;16.40;;;;;;5057949;28;20470;-82
2021/04/01 00:46:48;;;;;;;4.30;3.47;;;17.10;18.00;;;;;;5053150;28;20824;-81
2021/04/01 00:49:16;;;;;;;3.93;3.40;;;17.10;15.90;;;;;;5064316;28;20468;-82
2021/04/01 00:51:43;;;;;;;3.70;3.20;;;17.10;16.70;;;;;;5059997;28;20466;-83
2021/04/01 00:54:10;;;;;;;7.53;3.60;;;17.10;17.10;;;;;;5051573;28;20558;-83
2021/04/01 00:56:39;;;;;;;4.87;3.87;;;17.00;18.80;;;;;;5055030;28;20489;-83
2021/04/01 00:59:07;;;;;;;4.60;3.50;;;17.00;15.50;;;;;;5051399;28;20458;-83
2021/04/01 01:01:41;;;;;;;4.70;3.60;;;17.00;15.90;;;;;;5056761;28;20666;-83
2021/04/01 01:04:11;;;;;;;8.83;4.43;;;17.00;15.60;;;;;;5052036;28;20480;-82
2021/04/01 01:06:39;;;;;;;7.67;3.53;;;17.00;16.80;;;;;;5061246;28;20542;-79
2021/04/01 01:09:07;;;;;;;5.00;3.40;;;16.90;15.70;;;;;;5068938;28;20468;-80
2021/04/01 01:11:34;;;;;;;6.53;3.60;;;16.90;16.90;;;;;;5047507;28;20472;-82
2021/04/01 01:14:03;;;;;;;6.00;3.77;;;16.90;16.50;;;;;;5058917;28;20507;-81
2021/04/01 01:16:30;;;;;;;5.07;3.57;;;16.80;14.90;;;;;;5055286;28;20970;-81
2021/04/01 01:18:58;;;;;;;4.33;3.57;;;16.80;15.70;;;;;;5053175;28;20471;-81
2021/04/01 01:21:26;;;;;;;4.40;3.40;;;16.80;17.00;;;;;;5060922;28;20493;-82
2021/04/01 01:23:56;;;;;;;4.70;3.90;;;16.70;14.70;;;;;;5056753;28;20540;-82
2021/04/01 01:26:24;;;;;;;4.07;3.40;;;16.70;15.50;;;;;;5058408;28;20454;-83
2021/04/01 01:28:52;;;;;;;5.63;3.93;;;16.70;16.10;;;;;;5065046;28;20459;-83
2021/04/01 01:31:21;;;;;;;8.33;4.27;;;16.70;14.80;;;;;;5066926;28;20531;-84
2021/04/01 01:33:49;;;;;;;7.00;3.90;;;16.60;15.10;;;;;;5066676;28;20614;-83
2021/04/01 01:36:17;;;;;;;6.07;3.60;;;16.60;15.60;;;;;;5050831;28;20519;-83
2021/04/01 01:38:44;;;;;;;8.73;4.70;;;16.60;13.70;;;;;;5051204;28;20995;-83
2021/04/01 01:41:11;;;;;;;10.03;5.13;;;16.60;14.90;;;;;;5056526;28;20989;-83
2021/04/01 01:43:40;;;;;;;6.27;4.17;;;16.60;16.70;;;;;;5051066;28;20454;-82
2021/04/01 01:46:07;;;;;;;4.60;3.53;;;16.60;14.80;;;;;;5051008;28;20461;-81
2021/04/01 01:48:34;;;;;;;3.87;3.33;;;16.60;14.70;;;;;;5055980;28;20465;-82
2021/04/01 01:51:02;;;;;;;7.70;4.50;;;16.50;16.40;;;;;;5050213;28;20486;-83
2021/04/01 01:53:29;;;;;;;5.80;4.50;;;16.50;14.00;;;;;;5061139;28;20453;-85
2021/04/01 01:55:56;;;;;;;7.20;3.93;;;16.50;14.40;;;;;;5067423;28;20456;-84
2021/04/01 01:58:24;;;;;;;5.10;3.47;;;16.50;15.30;;;;;;5051576;28;20482;-86
2021/04/01 02:00:55;;;;;;;4.57;3.77;;;16.50;15.80;;;;;;5049390;28;20475;-83
2021/04/01 02:03:24;;;;;;;6.93;3.90;;;16.40;14.40;;;;;;5052656;28;20517;-84
2021/04/01 02:05:51;;;;;;;8.33;4.10;;;16.50;15.20;;;;;;5047900;28;20947;-83
2021/04/01 02:08:19;;;;;;;7.73;4.57;;;16.40;14.70;;;;;;5051197;28;20484;-84
2021/04/01 02:10:48;;;;;;;4.87;3.90;;;16.40;16.10;;;;;;5053291;28;20464;-84
2021/04/01 02:13:18;;;;;;;6.43;4.10;;;16.40;14.20;;;;;;5050595;28;20822;-83
2021/04/01 02:15:47;;;;;;;4.97;4.27;;;16.30;13.70;;;;;;5049836;28;20459;-83
2021/04/01 02:18:17;;;;;;;4.03;3.63;;;16.30;13.90;;;;;;5053474;28;20475;-83
2021/04/01 02:20:47;;;;;;;6.20;3.97;;;16.30;14.80;;;;;;5051486;28;20880;-83
2021/04/01 02:23:16;;;;;;;6.43;3.53;;;16.20;14.00;;;;;;5053103;28;20473;-84
2021/04/01 02:25:45;;;;;;;5.63;3.83;;;16.20;13.30;;;;;;5054345;28;20528;-84
2021/04/01 02:28:13;;;;;;;4.10;3.47;;;16.20;13.70;;;;;;5057818;28;20942;-83
2021/04/01 02:30:42;;;;;;;4.97;3.90;;;16.20;14.10;;;;;;5051521;28;20467;-84
2021/04/01 02:33:10;;;;;;;5.13;4.63;;;16.20;14.30;;;;;;5051541;28;20458;-84
2021/04/01 02:35:39;;;;;;;5.00;4.30;;;16.20;15.30;;;;;;5050570;28;20502;-82
2021/04/01 02:38:07;;;;;;;4.93;4.03;;;16.20;14.80;;;;;;5066156;28;20478;-83
2021/04/01 02:40:35;;;;;;;6.20;4.70;;;16.20;14.90;;;;;;5062008;28;20478;-82
2021/04/01 02:43:04;;;;;;;4.73;3.67;;;16.10;14.20;;;;;;5055466;28;20537;-82
2021/04/01 02:45:31;;;;;;;4.57;4.10;;;16.10;15.10;;;;;;5060353;28;20463;-82
2021/04/01 02:47:58;;;;;;;4.60;3.33;;;16.10;14.50;;;;;;5052897;28;20474;-82
2021/04/01 02:50:26;;;;;;;5.10;3.87;;;16.10;14.30;;;;;;5049348;28;20470;-83
2021/04/01 02:52:54;;;;;;;8.13;4.20;;;16.00;15.40;;;;;;5047497;28;21111;-79
2021/04/01 02:55:21;;;;;;;4.10;3.80;;;16.00;14.80;;;;;;5055607;28;20472;-79
2021/04/01 02:57:49;;;;;;;5.43;4.10;;;16.00;14.20;;;;;;5051076;28;20510;-82
2021/04/01 03:00:18;;;;;;;5.30;4.57;;;16.00;14.10;;;;;;5062405;28;20450;-80
2021/04/01 03:02:48;;;;;;;4.33;3.90;;;15.90;12.50;;;;;;5046272;28;20461;-82
2021/04/01 03:05:15;;;;;;;7.07;4.70;;;15.90;14.30;;;;;;5051950;28;21906;-82
2021/04/01 03:07:43;;;;;;;4.97;3.83;;;15.90;14.50;;;;;;5068618;28;20450;-83
2021/04/01 03:10:12;;;;;;;4.27;3.93;;;15.80;13.30;;;;;;5055651;28;20470;-81
2021/04/01 03:12:40;;;;;;;6.33;4.00;;;15.90;13.10;;;;;;5058484;28;20513;-82
2021/04/01 03:15:09;;;;;;;4.30;3.43;;;15.90;13.80;;;;;;5056376;28;20527;-81
2021/04/01 03:17:38;;;;;;;7.33;4.67;;;15.90;13.40;;;;;;5053420;28;20481;-81
2021/04/01 03:20:07;;;;;;;4.63;3.47;;;15.90;13.40;;;;;;5050147;28;20449;-82
2021/04/01 03:22:36;;;;;;;5.60;4.80;;;15.90;13.80;;;;;;5048885;28;20462;-81
2021/04/01 03:25:03;;;;;;;8.57;6.20;;;15.90;13.30;;;;;;5053515;28;20535;-83
2021/04/01 03:27:31;;;;;;;10.03;6.50;;;15.80;13.80;;;;;;5054524;28;20448;-83
2021/04/01 03:30:05;;;;;;;8.67;5.57;;;15.80;14.30;;;;;;5061853;28;20443;-82
2021/04/01 03:32:34;;;;;;;4.13;3.73;;;15.80;14.10;;;;;;5048528;28;20988;-84
2021/04/01 03:35:01;;;;;;;4.93;4.43;;;15.80;13.80;;;;;;5044573;28;20579;-82
2021/04/01 03:37:28;;;;;;;5.27;4.77;;;15.70;14.60;;;;;;5053917;28;20469;-82
2021/04/01 03:39:56;;;;;;;5.17;4.67;;;15.70;14.70;;;;;;5052414;28;20454;-83
2021/04/01 03:42:23;;;;;;;5.03;4.23;;;15.80;14.30;;;;;;5047582;28;20478;-82
2021/04/01 03:44:51;;;;;;;11.40;5.20;;;15.70;14.50;;;;;;5054848;28;20453;-82
2021/04/01 03:47:19;;;;;;;5.50;4.80;;;15.70;14.40;;;;;;5051199;28;20439;-83
2021/04/01 03:49:46;;;;;;;6.10;4.80;;;15.70;14.80;;;;;;5053177;28;20458;-83
2021/04/01 03:52:13;;;;;;;4.80;4.10;;;15.60;15.30;;;;;;5057559;28;20538;-83
2021/04/01 03:54:42;;;;;;;5.40;4.10;;;15.60;15.20;;;;;;5051027;28;20446;-83
2021/04/01 03:57:09;;;;;;;8.20;4.83;;;15.60;14.40;;;;;;5070949;28;20554;-83
2021/04/01 03:59:42;;;;;;;6.53;4.60;;;15.60;14.80;;;;;;5066525;28;20458;-81
2021/04/01 04:02:26;;;;;;;6.80;4.63;;;15.50;14.70;;;;;;5049572;28;20976;-80
2021/04/01 04:05:03;;;;;;;4.93;4.03;;;15.60;14.50;;;;;;5058127;28;20472;-82
2021/04/01 04:07:51;;;;;;;5.17;4.37;;;15.50;14.30;;;;;;5060903;28;20457;-83
2021/04/01 04:13:07;;;;;;;7.10;4.90;;;15.50;16.10;;;;;;5061116;28;20467;-82
2021/04/01 04:15:34;;;;;;;6.73;4.20;;;15.40;14.70;;;;;;5057683;28;20444;-82
2021/04/01 04:18:02;;;;;;;8.07;4.97;;;15.40;15.70;;;;;;5053828;28;20478;-82
2021/04/01 04:20:29;;;;;;;8.13;4.73;;;15.50;15.10;;;;;;5072315;28;20462;-81
2021/04/01 04:22:57;;;;;;;6.50;4.40;;;15.50;14.80;;;;;;5060790;28;20466;-83
2021/04/01 04:25:25;;;;;;;5.47;4.97;;;15.50;15.10;;;;;;5073143;28;20445;-82
2021/04/01 04:28:12;;;;;;;5.70;4.53;;;15.50;13.90;;;;;;5063751;28;20443;-81
2021/04/01 04:30:40;;;;;;;6.50;4.60;;;15.50;14.60;;;;;;5050761;28;20474;-81
2021/04/01 04:33:08;;;;;;;7.63;5.20;;;15.40;14.80;;;;;;5052268;28;20458;-79
2021/04/01 04:35:35;;;;;;;5.30;4.70;;;15.40;14.70;;;;;;5055666;28;20465;-77
2021/04/01 04:38:02;;;;;;;7.13;5.03;;;15.30;14.80;;;;;;5061561;28;20479;-77
2021/04/01 04:40:29;;;;;;;6.30;4.73;;;15.20;15.50;;;;;;5058539;28;20528;-81
2021/04/01 04:42:57;;;;;;;5.47;4.80;;;15.30;15.20;;;;;;5048464;28;21022;-82
2021/04/01 04:45:24;;;;;;;8.53;4.80;;;15.30;15.50;;;;;;5055741;28;20468;-83
2021/04/01 04:47:51;;;;;;;5.03;4.63;;;15.30;15.40;;;;;;5053854;28;20464;-80
2021/04/01 04:50:19;;;;;;;8.53;4.90;;;15.30;15.90;;;;;;5053220;28;20777;-80
2021/04/01 04:52:46;;;;;;;5.00;4.20;;;15.30;15.40;;;;;;5054159;28;20978;-81
2021/04/01 04:55:17;;;;;;;5.00;4.50;;;15.20;15.20;;;;;;5055785;28;20461;-80
2021/04/01 04:57:49;;;;;;;5.77;4.37;;;15.20;14.70;;;;;;5054968;28;20530;-82
2021/04/01 05:00:48;;;;;;;6.73;4.37;;;15.30;15.60;;;;;;5062188;28;20823;-81
2021/04/01 05:06:04;;;;;;;7.40;4.80;;;15.20;15.20;;;;;;5052962;28;20453;-80
2021/04/01 05:08:32;;;;;;;8.43;4.47;;;15.30;15.60;;;;;;5045335;28;20458;-81
2021/04/01 05:10:59;;;;;;;6.77;4.73;;;15.20;16.20;;;;;;5052112;28;21067;-79
2021/04/01 05:13:26;;;;;;;5.47;4.23;;;15.20;17.20;;;;;;5044669;28;20461;-76
2021/04/01 05:15:54;;;;;;;6.53;5.17;;;15.50;16.10;;;;;;5045384;28;20471;-77
2021/04/01 05:18:27;;;;;;;6.37;4.40;;;15.20;15.90;;;;;;5052702;28;20490;-77
2021/04/01 05:20:55;;;;;;;9.60;5.40;;;15.10;16.90;;;;;;5041362;28;20480;-78
2021/04/01 05:23:31;;;;;;;11.73;5.60;;;15.20;16.10;;;;;;5038733;28;20995;-77
2021/04/01 05:26:32;;;;;;;8.03;5.43;;;15.20;16.40;;;;;;5038052;28;20457;-79
2021/04/01 05:29:03;;;;;;;8.03;5.00;;;15.20;17.40;;;;;;5034952;28;20507;-77
2021/04/01 05:31:34;;;;;;;9.83;4.90;;;15.20;17.10;;;;;;5038198;28;20493;-79
2021/04/01 05:34:01;;;;;;;7.55;5.60;;;15.10;18.20;;;;;;5038661;28;20474;-79
2021/04/01 05:36:30;;;;;;;5.93;5.43;;;15.10;18.40;;;;;;5049356;28;20214;-81
2021/04/01 05:38:59;;;;;;;6.50;5.03;;;15.10;19.30;;;;;;5038089;28;20484;-79
2021/04/01 05:41:28;;;;;;;5.53;4.90;;;15.20;19.00;;;;;;5062200;28;20620;-80
2021/04/01 05:44:04;;;;;;;7.50;4.60;;;15.20;18.60;;;;;;5045965;28;20477;-78
2021/04/01 05:46:37;;;;;;;5.43;4.93;;;15.20;19.10;;;;;;5037621;28;20472;-78
2021/04/01 05:49:28;;;;;;;9.10;5.20;;;15.20;20.50;;;;;;5037332;28;20512;-80
2021/04/01 05:57:54;;;;;;;5.60;4.90;;;15.20;19.10;;;;;;5042070;28;21482;-78
2021/04/01 06:03:40;;;;;;;5.90;4.73;;;15.20;21.30;;;;;;5020680;28;20472;-78
2021/04/01 06:06:09;;;;;;;4.70;4.30;;;15.20;21.40;;;;;;5042634;28;21347;-78
2021/04/01 06:08:41;;;;;;;7.10;5.07;;;15.20;22.80;;;;;;5034942;28;20453;-78
2021/04/01 06:11:10;;;;;;;6.07;5.00;;;15.20;22.70;;;;;;5043163;28;20502;-79
2021/04/01 06:13:47;;;;;;;7.50;5.50;;;15.30;22.70;;;;;;5035550;28;20470;-79
2021/04/01 06:16:14;;;;;;;5.50;5.00;;;15.30;22.60;;;;;;5047158;28;20534;-79
2021/04/01 06:18:51;;;;;;;10.30;5.83;;;15.40;22.60;;;;;;5038922;28;20478;-80
2021/04/01 06:21:24;;;;;;;5.30;4.43;;;15.40;22.90;;;;;;5036794;28;20485;-80
2021/04/01 06:23:58;;;;;;;10.40;4.50;;;15.60;23.00;;;;;;5042543;28;21102;-79
2021/04/01 06:26:32;;;;;;;6.63;5.13;;;15.70;23.60;;;;;;5048406;28;20452;-79
2021/04/01 06:29:03;;;;;;;6.27;5.03;;;15.80;24.20;;;;;;5034816;28;20466;-80
2021/04/01 06:31:40;;;;;;;6.40;4.90;;;15.90;25.50;;;;;;5051365;28;20507;-79
2021/04/01 06:34:07;;;;;;;10.13;4.93;;;16.00;26.70;;;;;;5040337;28;20461;-81
2021/04/01 06:36:36;;;;;;;12.87;5.57;;;16.10;29.20;;;;;;5033382;28;20462;-79
2021/04/01 06:39:04;;;;;;;9.57;6.47;;;16.30;28.50;;;;;;5044811;28;22609;-81
2021/04/01 06:41:32;;;;;;;9.60;6.37;;;16.40;28.20;;;;;;5043663;28;20505;-80
2021/04/01 06:44:16;;;;;;;7.27;5.20;;;16.50;29.90;;;;;;5029224;28;20462;-80
2021/04/01 06:46:46;;;;;;;5.90;5.40;;;16.50;28.40;;;;;;5039393;28;21547;-80
2021/04/01 06:52:14;;;;;;;8.27;5.47;;;16.70;30.00;;;;;;5031135;28;20482;-78
2021/04/01 06:54:53;;;;;;;7.20;5.73;;;16.80;29.20;;;;;;5031416;28;20547;-80
2021/04/01 06:57:33;;;;;;;7.17;5.53;;;16.80;30.20;;;;;;5032415;28;20466;-79
2021/04/01 07:00:32;;;;;;;7.27;6.07;;;16.90;31.20;;;;;;5041953;28;20542;-79
2021/04/01 07:03:12;;;;;;;11.03;6.50;;;17.00;32.60;;;;;;5049138;28;20460;-81
2021/04/01 07:05:47;;;;;;;10.23;7.47;;;17.20;34.80;;;;;;5045372;28;20462;-81
2021/04/01 07:08:17;;;;;;;9.97;7.97;;;17.30;34.90;;;;;;5051339;28;20467;-82
2021/04/01 07:10:52;;;;;;;9.30;6.50;;;17.30;34.10;;;;;;5046330;28;20497;-80
2021/04/01 07:13:29;;;;;;;8.70;6.40;;;17.40;33.90;;;;;;5063744;28;21351;-81
2021/04/01 07:16:16;;;;;;;8.47;6.30;;;17.50;35.00;;;;;;5049436;28;20459;-82
2021/04/01 07:44:43;;;;;;;7.77;5.30;;;18.20;40.30;;;;;;5048166;28;20474;-83
2021/04/01 07:44:51;;;;;;;7.67;5.50;;;18.80;50.80;;;;;;5047628;28;20553;-82
2021/04/01 07:47:21;;;;;;;7.70;4.53;;;19.00;46.90;;;;;;5047724;28;20541;-83
2021/04/01 07:49:52;;;;;;;6.40;4.70;;;19.10;47.50;;;;;;5044379;28;20522;-79
2021/04/01 07:52:22;;;;;;;6.87;5.07;;;19.30;48.30;;;;;;5042299;28;22119;-83
2021/04/01 07:54:59;;;;;;;7.20;4.63;;;19.40;48.60;;;;;;5048227;28;20451;-80
2021/04/01 07:57:56;;;;;;;11.17;6.10;;;19.60;51.20;;;;;;5051857;28;20460;-81
2021/04/01 08:00:28;;;;;;;7.17;5.03;;;19.90;51.90;;;;;;5044812;28;20470;-83
2021/04/01 08:03:21;;;;;;;9.87;5.73;;;20.10;57.30;;;;;;5049662;28;20459;-84
2021/04/01 08:05:48;;;;;;;8.67;4.57;;;20.20;57.00;;;;;;5051783;28;20521;-82
2021/04/01 08:08:20;;;;;;;11.60;5.20;;;20.40;56.60;;;;;;5053480;28;20466;-83
2021/04/01 08:10:49;;;;;;;9.60;8.70;;;20.50;58.10;;;;;;5053714;28;21005;-79
2021/04/01 08:13:27;;;;;;;6.07;5.23;;;20.50;57.20;;;;;;5048872;28;20446;-84
2021/04/01 08:15:59;;;;;;;6.47;4.50;;;20.60;57.00;;;;;;5054538;28;20828;-81
2021/04/01 08:18:33;;;;;;;9.37;4.20;;;20.70;58.40;;;;;;5052414;28;20478;-82
2021/04/01 08:21:04;;;;;;;4.87;3.20;;;20.70;58.60;;;;;;5059146;28;20482;-83
2021/04/01 08:24:02;;;;;;;10.03;4.10;;;20.80;58.50;;;;;;5048440;28;20530;-81
2021/04/01 08:27:12;;;;;;;5.17;3.27;;;20.90;59.10;;;;;;5052084;28;20443;-80
2021/04/01 08:37:01;;;;;;;3.93;2.53;;;21.20;64.10;;;;;;4883881;28;20608;-82
2021/04/01 08:39:49;;;;;;;5.13;2.53;;;21.30;62.70;;;;;;4978788;28;20606;-81
2021/04/01 08:43:11;;;;;;;5.00;2.30;;;21.30;61.70;;;;;;5049535;28;20547;-81
2021/04/01 08:46:10;;;;;;;3.90;2.27;;;21.40;61.00;;;;;;5046833;28;20463;-82
2021/04/01 08:49:11;;;;;;;4.57;2.10;;;21.40;62.80;;;;;;5053278;28;20441;-80
2021/04/01 08:52:04;;;;;;;9.07;3.30;;;21.50;63.00;;;;;;5042520;28;21223;-81
2021/04/01 08:54:40;;;;;;;2.67;1.83;;;21.50;61.70;;;;;;5050863;28;20456;-78
2021/04/01 08:57:11;;;;;;;4.60;2.30;;;21.60;63.70;;;;;;5055761;28;20468;-77
2021/04/01 08:59:56;;;;;;;5.60;2.60;;;21.70;65.90;;;;;;5051813;28;20472;-79
2021/04/01 09:02:24;;;;;;;5.27;2.30;;;21.80;65.20;;;;;;5051157;28;20827;-80
2021/04/01 09:04:54;;;;;;;3.42;2.15;;;21.70;61.10;;;;;;5048989;28;20461;-78
2021/04/01 09:07:26;;;;;;;2.60;2.13;;;21.70;62.60;;;;;;5048707;28;20207;-82
2021/04/01 09:10:02;;;;;;;8.90;3.27;;;21.90;65.60;;;;;;5050808;28;20450;-81
2021/04/01 09:12:35;;;;;;;4.50;2.47;;;21.90;67.20;;;;;;5050795;28;20505;-80
2021/04/01 09:15:06;;;;;;;4.30;2.30;;;22.00;69.70;;;;;;5052797;28;20435;-81
2021/04/01 09:17:34;;;;;;;6.20;2.53;;;22.00;65.90;;;;;;5055628;28;20453;-80
2021/04/01 09:20:11;;;;;;;4.03;1.90;;;22.10;70.30;;;;;;5045437;28;20473;-80
2021/04/01 09:22:44;;;;;;;3.90;2.20;;;22.20;71.80;;;;;;5050990;28;20550;-80
2021/04/01 09:25:13;;;;;;;3.83;2.33;;;22.30;74.40;;;;;;5050494;28;20464;-80
2021/04/01 09:27:48;;;;;;;2.50;2.30;;;22.30;73.30;;;;;;5053688;28;20553;-79
2021/04/01 09:30:18;;;;;;;7.03;2.60;;;22.30;72.40;;;;;;5046951;28;20455;-80
2021/04/01 09:32:48;;;;;;;3.60;2.17;;;22.30;71.20;;;;;;5046576;28;20497;-79
2021/04/01 09:35:16;;;;;;;2.13;1.80;;;22.40;71.80;;;;;;5046833;28;20489;-79
2021/04/01 09:37:52;;;;;;;3.90;2.70;;;22.40;73.00;;;;;;5045788;28;20451;-79
2021/04/01 09:40:21;;;;;;;2.23;1.80;;;22.50;72.10;;;;;;5050544;28;20965;-80
2021/04/01 09:42:48;;;;;;;3.93;2.43;;;22.50;73.90;;;;;;5051599;28;20993;-81
2021/04/01 09:45:27;;;;;;;8.37;4.67;;;22.50;76.30;;;;;;5051508;28;20553;-81
2021/04/01 09:47:59;;;;;;;3.90;2.60;;;22.60;75.60;;;;;;5057551;28;21356;-80
2021/04/01 09:50:30;;;;;;;5.23;2.67;;;22.60;75.30;;;;;;5056188;28;20458;-80
2021/04/01 09:53:01;;;;;;;3.77;2.70;;;22.60;75.90;;;;;;5066881;28;20457;-81
2021/04/01 09:55:39;;;;;;;2.33;2.10;;;22.60;72.20;;;;;;5060395;28;20941;-80
2021/04/01 09:58:18;;;;;;;2.70;2.20;;;22.90;75.30;;;;;;5058805;28;20478;-79
2021/04/01 10:03:50;;;;;;;4.27;2.27;;;22.80;78.00;;;;;;5003229;28;20554;-80
2021/04/01 10:06:34;;;;;;;6.60;2.13;;;22.90;81.00;;;;;;5047659;28;20527;-79
2021/04/01 10:09:13;;;;;;;5.63;2.20;;;23.00;80.70;;;;;;5056255;28;20449;-81
2021/04/01 10:11:47;;;;;;;2.50;2.07;;;23.10;83.40;;;;;;5050248;28;20482;-80
2021/04/01 10:14:15;;;;;;;2.70;2.20;;;23.20;84.40;;;;;;5057025;28;21301;-80
2021/04/01 10:16:55;;;;;;;6.00;2.07;;;23.20;86.10;;;;;;5053496;28;20466;-80
2021/04/01 10:19:25;;;;;;;3.83;3.43;;;23.30;86.80;;;;;;5046501;28;20571;-77
2021/04/01 10:21:53;;;;;;;4.33;2.13;;;23.40;84.60;;;;;;5051589;28;20506;-76
2021/04/01 10:24:28;;;;;;;3.73;2.33;;;23.40;84.60;;;;;;5066126;28;20456;-77
2021/04/01 10:27:05;;;;;;;6.10;2.30;;;23.60;97.10;;;;;;5060740;28;20541;-78
2021/04/01 10:29:55;;;;;;;7.17;3.40;;;23.60;88.20;;;;;;5036543;28;20965;-77
2021/04/01 10:32:33;;;;;;;5.27;2.80;;;23.70;90.00;;;;;;5045945;28;20603;-77
2021/04/01 10:35:05;;;;;;;3.20;2.90;;;23.70;90.10;;;;;;5052705;28;20451;-77
2021/04/01 10:37:33;;;;;;;3.33;2.77;;;23.80;90.70;;;;;;5051000;28;20458;-79
2021/04/01 10:40:07;;;;;;;9.50;3.30;;;23.80;90.90;;;;;;5044189;28;20468;-80
2021/04/01 10:42:35;;;;;;;7.83;2.57;;;24.00;90.40;;;;;;5049350;28;20447;-78
2021/04/01 10:45:07;;;;;;;4.47;2.50;;;23.90;90.30;;;;;;5061141;28;20505;-72
2021/04/01 10:47:57;;;;;;;2.90;2.03;;;24.00;90.30;;;;;;5052024;28;20456;-78
2021/04/01 10:50:27;;;;;;;3.10;2.27;;;23.80;84.50;;;;;;5042951;28;20490;-78
2021/04/01 10:52:55;;;;;;;4.73;2.57;;;23.80;85.50;;;;;;5049168;28;20462;-80
2021/04/01 10:55:28;;;;;;;4.60;2.40;;;23.80;85.70;;;;;;5047280;28;20469;-78
2021/04/01 10:58:05;;;;;;;3.93;2.60;;;23.80;86.40;;;;;;5044352;28;20660;-78
2021/04/01 11:00:33;;;;;;;5.27;2.20;;;23.90;86.50;;;;;;5048144;28;21080;-78
2021/04/01 11:03:04;;;;;;;3.70;2.17;;;24.00;90.10;;;;;;5049030;28;20820;-79
2021/04/01 11:05:33;;;;;;;4.80;2.17;;;23.80;89.70;;;;;;5051639;28;20585;-78
2021/04/01 11:08:06;;;;;;;3.83;2.37;;;24.10;89.90;;;;;;5044959;28;20455;-77
2021/04/01 11:10:35;;;;;;;2.47;1.90;;;24.20;90.40;;;;;;5047848;28;20568;-79
2021/04/01 11:13:05;;;;;;;4.15;2.00;;;24.20;90.30;;;;;;5046289;28;20475;-79
2021/04/01 11:15:33;;;;;;;4.10;1.87;;;24.20;89.30;;;;;;5052827;28;20189;-79
2021/04/01 11:18:05;;;;;;;2.50;2.20;;;24.20;90.00;;;;;;5044260;28;20479;-79
2021/04/01 11:20:34;;;;;;;4.13;2.13;;;24.30;90.10;;;;;;5048319;28;20928;-79
2021/04/01 11:23:04;;;;;;;5.07;2.17;;;24.30;89.70;;;;;;5047499;28;20521;-79
2021/04/01 11:25:32;;;;;;;2.60;2.07;;;24.20;88.40;;;;;;5052086;28;20462;-78
2021/04/01 11:28:01;;;;;;;3.20;1.80;;;24.00;81.30;;;;;;5053928;28;20563;-78
2021/04/01 11:30:45;;;;;;;2.30;1.63;;;24.00;84.80;;;;;;5040980;28;20489;-78
2021/04/01 11:33:13;;;;;;;3.57;2.00;;;24.10;85.40;;;;;;5044022;28;20452;-80
2021/04/01 11:35:47;;;;;;;2.37;2.17;;;24.20;88.40;;;;;;5048794;28;20479;-79
2021/04/01 11:38:21;;;;;;;2.90;1.80;;;24.30;88.50;;;;;;5054014;28;20815;-79
2021/04/01 11:40:54;;;;;;;6.60;2.20;;;24.30;89.80;;;;;;5045893;28;20595;-79
2021/04/01 11:43:29;;;;;;;2.83;2.23;;;24.40;87.10;;;;;;5046940;28;20923;-80
2021/04/01 11:45:57;;;;;;;3.27;1.67;;;24.40;90.90;;;;;;5045186;28;20454;-80
2021/04/01 11:48:25;;;;;;;4.37;2.17;;;24.40;88.00;;;;;;5051210;28;20449;-77
2021/04/01 11:50:53;;;;;;;2.23;1.77;;;24.40;88.80;;;;;;5049549;28;20530;-79
2021/04/01 11:53:21;;;;;;;3.87;2.33;;;24.50;90.60;;;;;;5048827;28;20464;-77
2021/04/01 11:55:50;;;;;;;2.93;1.93;;;24.40;89.40;;;;;;5052669;28;20462;-79
2021/04/01 11:58:18;;;;;;;6.77;2.00;;;24.50;89.10;;;;;;5048137;28;20659;-79
2021/04/01 12:00:48;;;;;;;5.80;1.98;;;24.60;92.80;;;;;;5047166;28;20481;-79
2021/04/01 12:03:22;;;;;;;2.53;1.70;;;24.60;94.10;;;;;;5056230;28;20262;-78
2021/04/01 12:05:51;;;;;;;2.90;2.07;;;24.70;94.90;;;;;;5055294;28;20462;-77
2021/04/01 12:08:19;;;;;;;3.27;1.50;;;24.70;94.40;;;;;;5058399;28;20451;-78
2021/04/01 12:10:55;;;;;;;10.87;5.27;;;24.70;93.70;;;;;;5050289;28;20477;-82
2021/04/01 12:13:23;;;;;;;2.77;1.67;;;24.80;94.50;;;;;;5055759;28;20449;-78
2021/04/01 12:15:53;;;;;;;3.00;1.80;;;24.80;94.80;;;;;;5051305;28;20795;-79
2021/04/01 12:18:20;;;;;;;2.30;1.70;;;24.90;96.60;;;;;;5052455;28;20461;-79
2021/04/01 12:20:49;;;;;;;1.73;1.63;;;25.00;97.00;;;;;;5051190;28;20617;-79
2021/04/01 12:23:20;;;;;;;5.40;2.23;;;25.00;95.00;;;;;;5053505;28;20818;-80
2021/04/01 12:25:48;;;;;;;2.13;1.57;;;24.90;93.70;;;;;;5051505;28;20495;-77
2021/04/01 12:28:19;;;;;;;1.60;1.50;;;24.90;95.30;;;;;;5052914;28;20465;-77
2021/04/01 12:30:48;;;;;;;2.03;1.50;;;25.00;94.70;;;;;;5053569;28;20479;-78
2021/04/01 12:33:19;;;;;;;1.80;1.40;;;25.00;94.30;;;;;;5051449;28;20451;-77
2021/04/01 12:35:51;;;;;;;1.60;1.50;;;25.10;95.70;;;;;;5054643;28;21049;-79
2021/04/01 12:38:37;;;;;;;2.27;1.97;;;25.20;97.60;;;;;;5056056;28;20504;-78
2021/04/01 12:41:07;;;;;;;2.40;1.60;;;25.20;94.80;;;;;;5051360;28;20577;-78
2021/04/01 12:43:36;;;;;;;2.57;1.67;;;25.20;95.20;;;;;;5051491;28;20884;-78
2021/04/01 12:46:05;;;;;;;2.53;1.60;;;25.20;95.90;;;;;;5046158;28;21024;-80
2021/04/01 12:48:40;;;;;;;2.30;1.57;;;25.20;95.80;;;;;;5055629;28;20443;-78
2021/04/01 12:51:10;;;;;;;2.58;1.70;;;25.20;96.80;;;;;;5046945;28;20513;-78
2021/04/01 12:53:37;;;;;;;3.57;1.60;;;25.20;94.80;;;;;;5060204;28;20662;-81
2021/04/01 12:56:11;;;;;;;2.40;1.60;;;25.20;97.40;;;;;;5055716;28;20957;-79
2021/04/01 12:58:41;;;;;;;2.33;1.73;;;25.30;96.90;;;;;;5050187;28;20463;-78
2021/04/01 13:01:14;;;;;;;4.00;1.70;;;25.40;97.70;;;;;;5052497;28;20479;-78
2021/04/01 13:03:43;;;;;;;2.77;1.63;;;25.40;97.50;;;;;;5059162;28;20447;-79
2021/04/01 13:06:14;;;;;;;2.90;1.53;;;25.40;98.40;;;;;;5056762;28;20447;-79
2021/04/01 13:11:17;;;;;;;1.80;1.50;;;25.30;96.00;;;;;;5051861;28;20547;-78
2021/04/01 13:13:45;;;;;;;2.60;1.80;;;25.40;96.70;;;;;;5055019;28;20460;-78
2021/04/01 13:16:13;;;;;;;2.10;1.70;;;25.50;94.80;;;;;;5054801;28;20450;-78
2021/04/01 13:18:41;;;;;;;2.63;1.53;;;25.50;94.60;;;;;;5050182;28;20286;-78
2021/04/01 13:21:29;;;;;;;2.03;1.73;;;25.60;95.60;;;;;;5044173;28;20490;-80
2021/04/01 13:24:02;;;;;;;1.57;1.47;;;25.50;96.10;;;;;;5059388;28;20825;-79
2021/04/01 13:26:31;;;;;;;2.60;1.70;;;25.50;97.10;;;;;;5058334;28;20481;-78
2021/04/01 13:28:59;;;;;;;2.40;2.10;;;25.50;94.90;;;;;;5050052;28;20466;-78
2021/04/01 13:31:36;;;;;;;3.88;1.90;;;25.40;99.90;;;;;;5047476;28;20548;-78
2021/04/01 13:34:08;;;;;;;4.40;1.73;;;25.40;92.70;;;;;;5050719;28;20466;-80
2021/04/01 13:36:40;;;;;;;3.00;1.97;;;25.50;93.60;;;;;;5050370;28;20683;-79
2021/04/01 13:39:08;;;;;;;3.50;1.80;;;25.50;93.50;;;;;;5057590;28;20479;-78
2021/04/01 13:44:25;;;;;;;3.43;1.87;;;25.50;99.90;;;;;;5053683;28;20223;-81
2021/04/01 13:46:52;;;;;;;2.70;1.70;;;25.40;92.40;;;;;;5049771;28;20452;-78
2021/04/01 13:49:23;;;;;;;5.17;1.90;;;25.30;92.30;;;;;;5051952;28;20450;-82
2021/04/01 13:51:55;;;;;;;5.50;1.90;;;25.20;91.20;;;;;;5054328;28;20604;-78
2021/04/01 13:54:32;;;;;;;3.67;1.90;;;25.30;90.80;;;;;;5059213;28;20480;-79
2021/04/01 13:57:14;;;;;;;3.23;1.60;;;25.30;91.50;;;;;;5063531;28;20580;-79
2021/04/01 14:00:01;;;;;;;5.70;2.43;;;25.40;91.30;;;;;;5054578;28;20489;-79
2021/04/01 14:10:53;;;;;;;5.97;2.40;;;25.40;91.00;;;;;;5063352;28;20470;-79
2021/04/01 14:13:23;;;;;;;10.70;2.67;;;25.30;90.70;;;;;;5065960;28;20451;-79
2021/04/01 14:15:51;;;;;;;3.60;1.90;;;25.20;90.30;;;;;;5052469;28;20872;-79